createdAt,value
2018-11-14T05:00:29.110Z,98.50
2018-11-14T05:01:29.094Z,98.29
2018-11-14T05:02:29.142Z,97.77
2018-11-14T05:03:29.073Z,97.98
2018-11-14T05:04:29.061Z,98.02
2018-11-14T05:05:29.049Z,97.81
2018-11-14T05:06:29.041Z,97.77
2018-11-14T05:07:29.039Z,97.50
2018-11-14T05:08:29.016Z,97.92
2018-11-14T05:09:29.010Z,98.23
2018-11-14T05:10:28.996Z,98.02
2018-11-14T05:11:28.981Z,97.81
2018-11-14T05:12:28.984Z,97.81
2018-11-14T05:13:28.962Z,97.81
2018-11-14T05:14:28.952Z,97.92
2018-11-14T05:15:28.939Z,97.81
2018-11-14T05:16:28.924Z,97.19
2018-11-14T05:17:28.924Z,97.61
2018-11-14T05:18:28.905Z,98.13
2018-11-14T05:19:28.889Z,98.13
2018-11-14T05:20:28.879Z,97.44
2018-11-14T05:21:28.868Z,98.07
2018-11-14T05:22:28.860Z,97.86
2018-11-14T05:23:28.860Z,97.97
2018-11-14T05:24:28.895Z,98.18
2018-11-14T05:25:28.825Z,97.97
2018-11-14T05:26:28.810Z,97.50
2018-11-14T05:27:28.801Z,97.71
2018-11-14T05:28:28.803Z,97.71
2018-11-14T05:29:28.784Z,97.81
2018-11-14T05:30:28.768Z,97.50
2018-11-14T05:31:28.756Z,97.65
2018-11-14T05:32:28.745Z,97.55
2018-11-14T05:33:28.747Z,97.61
2018-11-14T05:34:28.723Z,97.61
2018-11-14T05:35:28.711Z,97.81
2018-11-14T05:36:28.705Z,97.97
2018-11-14T05:37:28.688Z,98.07
2018-11-14T05:38:28.689Z,98.28
2018-11-14T05:39:28.729Z,98.07
2018-11-14T05:40:28.658Z,97.55
2018-11-14T05:41:28.656Z,98.38
2018-11-14T05:42:28.632Z,98.28
2018-11-14T05:43:28.632Z,98.28
2018-11-14T05:44:28.609Z,98.18
2018-11-14T05:45:28.643Z,97.75
2018-11-14T05:46:28.591Z,98.18
2018-11-14T05:47:28.575Z,98.18
2018-11-14T05:48:28.581Z,97.55
2018-11-14T05:49:28.555Z,97.86
2018-11-14T05:50:28.545Z,98.18
2018-11-14T05:51:28.534Z,98.28
2018-11-14T05:52:28.525Z,97.55
2018-11-14T05:53:28.522Z,98.07
2018-11-14T05:54:28.498Z,98.18
2018-11-14T05:55:28.487Z,98.38
2018-11-14T05:56:28.481Z,97.65
2018-11-14T05:57:28.465Z,97.86
2018-11-14T05:58:28.465Z,97.75
2018-11-14T05:59:28.447Z,97.97
2018-11-14T06:00:28.450Z,97.34
2018-11-14T06:01:28.419Z,97.44
2018-11-14T06:02:28.408Z,98.18
2018-11-14T06:03:28.408Z,98.18
2018-11-14T06:04:28.385Z,98.18
2018-11-14T06:05:28.373Z,98.75
2018-11-14T06:06:28.362Z,98.28
2018-11-14T06:07:28.375Z,98.59
2018-11-14T06:08:28.352Z,98.38
2018-11-14T06:09:28.332Z,98.38
2018-11-14T06:10:28.326Z,98.07
2018-11-14T06:11:28.321Z,98.28
2018-11-14T06:12:28.299Z,97.86
2018-11-14T06:13:28.305Z,97.86
2018-11-14T06:14:28.275Z,97.97
2018-11-14T06:15:28.304Z,97.55
2018-11-14T06:16:28.253Z,98.18
2018-11-14T06:17:28.241Z,98.07
2018-11-14T06:18:28.237Z,97.44
2018-11-14T06:19:28.220Z,97.55
2018-11-14T06:20:28.206Z,98.07
2018-11-14T06:21:28.196Z,98.18
2018-11-14T06:22:28.187Z,98.28
2018-11-14T06:23:28.194Z,98.18
2018-11-14T06:24:28.163Z,98.38
2018-11-14T06:25:28.150Z,98.38
2018-11-14T06:26:28.138Z,98.18
2018-11-14T06:27:28.131Z,97.97
2018-11-14T06:28:28.127Z,98.59
2018-11-14T06:29:28.105Z,98.38
2018-11-14T06:30:28.099Z,97.75
2018-11-14T06:31:28.081Z,97.75
2018-11-14T06:32:28.070Z,98.59
2018-11-14T06:33:28.074Z,98.34
2018-11-14T06:34:28.046Z,97.86
2018-11-14T06:35:28.035Z,98.07
2018-11-14T06:36:28.028Z,98.07
2018-11-14T06:37:28.016Z,97.44
2018-11-14T06:38:28.013Z,98.07
2018-11-14T06:39:27.998Z,97.75
2018-11-14T06:40:27.986Z,97.86
2018-11-14T06:41:28.004Z,97.75
2018-11-14T06:42:27.963Z,98.07
2018-11-14T06:43:27.980Z,97.86
2018-11-14T06:44:27.936Z,97.86
2018-11-14T06:45:27.927Z,97.91
2018-11-14T06:46:27.919Z,98.11
2018-11-14T06:47:27.906Z,98.01
2018-11-14T06:48:27.902Z,97.91
2018-11-14T06:49:27.883Z,97.70
2018-11-14T06:50:27.869Z,97.80
2018-11-14T06:51:27.856Z,98.01
2018-11-14T06:52:27.844Z,97.80
2018-11-14T06:53:27.850Z,97.70
2018-11-14T06:54:27.824Z,98.01
2018-11-14T06:55:27.823Z,97.91
2018-11-14T06:56:27.800Z,98.11
2018-11-14T06:57:27.853Z,98.38
2018-11-14T06:58:27.792Z,97.86
2018-11-14T06:59:27.889Z,97.86
2018-11-14T07:00:27.758Z,97.97
2018-11-14T07:01:27.742Z,98.18
2018-11-14T07:02:27.732Z,97.86
2018-11-14T07:03:27.843Z,97.75
2018-11-14T07:04:27.711Z,97.86
2018-11-14T07:05:27.778Z,98.07
2018-11-14T07:06:27.691Z,98.38
2018-11-14T07:07:27.690Z,98.28
2018-11-14T07:08:27.682Z,97.97
2018-11-14T07:09:27.658Z,97.44
2018-11-14T07:10:27.649Z,97.55
2018-11-14T07:11:27.634Z,97.97
2018-11-14T07:12:27.620Z,98.07
2018-11-14T07:13:27.626Z,98.07
2018-11-14T07:14:27.598Z,97.97
2018-11-14T07:15:27.588Z,98.38
2018-11-14T07:16:27.580Z,98.49
2018-11-14T07:17:27.565Z,98.28
2018-11-14T07:18:27.567Z,98.38
2018-11-14T07:19:27.553Z,98.38
2018-11-14T07:20:27.531Z,98.28
2018-11-14T07:21:27.519Z,98.28
2018-11-14T07:22:27.513Z,98.38
2018-11-14T07:23:27.516Z,98.23
2018-11-14T07:24:27.557Z,98.38
2018-11-14T07:25:27.473Z,98.34
2018-11-14T07:26:27.463Z,98.13
2018-11-14T07:27:27.450Z,98.23
2018-11-14T07:28:27.442Z,98.23
2018-11-14T07:29:27.444Z,98.44
2018-11-14T07:30:27.433Z,98.13
2018-11-14T07:31:27.409Z,98.13
2018-11-14T07:32:27.398Z,98.34
2018-11-14T07:33:27.386Z,98.23
2018-11-14T07:34:27.391Z,98.65
2018-11-14T07:35:27.365Z,98.55
2018-11-14T07:36:27.356Z,98.86
2018-11-14T07:37:27.340Z,98.08
2018-11-14T07:38:27.333Z,98.55
2018-11-14T07:39:27.325Z,98.29
2018-11-14T07:40:27.306Z,98.34
2018-11-14T07:41:27.299Z,98.34
2018-11-14T07:42:27.283Z,98.23
2018-11-14T07:43:27.281Z,98.13
2018-11-14T07:44:27.272Z,98.13
2018-11-14T07:45:27.249Z,98.19
2018-11-14T07:46:27.242Z,98.50
2018-11-14T07:47:27.228Z,98.04
2018-11-14T07:48:27.221Z,98.14
2018-11-14T07:49:27.220Z,98.20
2018-11-14T07:50:27.192Z,97.99
2018-11-14T07:51:27.184Z,98.20
2018-11-14T07:52:27.169Z,98.41
2018-11-14T07:53:27.158Z,98.72
2018-11-14T07:54:27.173Z,98.62
2018-11-14T07:55:27.139Z,98.36
2018-11-14T07:56:27.123Z,99.10
2018-11-14T07:57:27.115Z,98.53
2018-11-14T07:58:27.110Z,97.91
2018-11-14T07:59:27.101Z,98.43
2018-11-14T08:00:27.083Z,98.07
2018-11-14T08:01:27.067Z,98.32
2018-11-14T08:02:27.055Z,98.53
2018-11-14T08:03:27.052Z,98.11
2018-11-14T08:04:27.049Z,98.27
2018-11-14T08:05:27.025Z,98.27
2018-11-14T08:06:27.016Z,98.54
2018-11-14T08:07:27.009Z,97.98
2018-11-14T08:08:27.147Z,97.62
2018-11-14T08:09:26.989Z,97.62
2018-11-14T08:10:26.959Z,95.86
2018-11-14T08:11:26.961Z,96.37
2018-11-14T08:12:26.978Z,94.98
2018-11-14T08:13:26.950Z,94.42
2018-11-14T08:14:26.950Z,94.42
2018-11-14T08:15:26.915Z,93.18
2018-11-14T08:16:26.899Z,93.38
2018-11-14T08:17:26.888Z,93.75
2018-11-14T08:18:26.865Z,93.60
2018-11-14T08:19:26.878Z,93.33
2018-11-14T08:20:26.863Z,93.90
2018-11-14T08:21:26.843Z,93.75
2018-11-14T08:22:26.835Z,93.70
2018-11-14T08:23:26.812Z,94.42
2018-11-14T08:24:26.820Z,94.67
2018-11-14T08:25:26.796Z,94.78
2018-11-14T08:26:26.804Z,94.88
2018-11-14T08:27:26.768Z,94.94
2018-11-14T08:28:26.762Z,94.84
2018-11-14T08:29:26.781Z,95.41
2018-11-14T08:30:26.793Z,95.62
2018-11-14T08:31:26.758Z,95.41
2018-11-14T08:32:26.721Z,95.62
2018-11-14T08:33:26.723Z,94.79
2018-11-14T08:34:26.720Z,94.58
2018-11-14T08:35:26.692Z,95.10
2018-11-14T08:36:26.681Z,94.84
2018-11-14T08:37:26.664Z,95.72
2018-11-14T08:38:26.657Z,95.51
2018-11-14T08:39:26.711Z,95.62
2018-11-14T08:40:26.638Z,95.68
2018-11-14T08:41:26.620Z,95.37
2018-11-14T08:42:26.606Z,95.37
2018-11-14T08:43:26.598Z,95.47
2018-11-14T08:44:26.612Z,95.78
2018-11-14T08:45:26.582Z,95.47
2018-11-14T08:46:26.566Z,95.43
2018-11-14T08:47:26.550Z,95.43
2018-11-14T08:48:26.552Z,95.84
2018-11-14T08:49:26.548Z,95.64
2018-11-14T08:50:26.613Z,95.18
2018-11-14T08:51:26.502Z,95.03
2018-11-14T08:52:26.549Z,95.50
2018-11-14T08:53:26.481Z,95.19
2018-11-14T08:54:26.499Z,95.50
2018-11-14T08:55:26.459Z,94.57
2018-11-14T08:56:26.452Z,94.84
2018-11-14T08:57:26.448Z,93.08
2018-11-14T08:58:26.433Z,93.33
2018-11-14T08:59:26.421Z,93.23
2018-11-14T09:00:26.402Z,93.12
2018-11-14T09:01:26.395Z,94.16
2018-11-14T09:02:26.384Z,94.37
2018-11-14T09:03:26.376Z,94.26
2018-11-14T09:04:26.377Z,94.57
2018-11-14T09:05:26.352Z,94.72
2018-11-14T09:06:26.510Z,95.54
2018-11-14T09:07:26.324Z,95.24
2018-11-14T09:08:26.316Z,95.34
2018-11-14T09:09:26.350Z,95.14
2018-11-14T09:10:26.289Z,95.34
2018-11-14T09:11:26.422Z,96.89
2018-11-14T09:12:26.345Z,96.48
2018-11-14T09:13:26.246Z,96.58
2018-11-14T09:14:26.314Z,95.96
2018-11-14T09:15:26.232Z,97.52
2018-11-14T09:16:26.221Z,97.10
2018-11-14T09:17:26.212Z,97.00
2018-11-14T09:18:26.294Z,96.89
2018-11-14T09:19:26.208Z,96.75
2018-11-14T09:20:26.173Z,97.10
2018-11-14T09:21:26.167Z,97.31
2018-11-14T09:22:26.143Z,97.36
2018-11-14T09:23:26.144Z,97.62
2018-11-14T09:24:26.145Z,97.93
2018-11-14T09:25:26.119Z,98.61
2018-11-14T09:26:26.122Z,98.61
2018-11-14T09:27:26.108Z,98.09
2018-11-14T09:28:26.087Z,98.30
2018-11-14T09:29:26.123Z,98.71
2018-11-14T09:30:26.070Z,98.66
2018-11-14T09:31:26.057Z,99.08
2018-11-14T09:32:26.038Z,98.97
2018-11-14T09:33:26.030Z,98.87
2018-11-14T09:34:26.036Z,98.77
2018-11-14T09:35:26.056Z,98.97
2018-11-14T09:36:25.993Z,98.56
2018-11-14T09:37:25.981Z,99.24
2018-11-14T09:38:25.974Z,99.76
2018-11-14T09:39:25.998Z,99.09
2018-11-14T09:40:25.963Z,98.84
2018-11-14T09:41:26.012Z,98.94
2018-11-14T09:42:25.932Z,98.84
2018-11-14T09:43:25.926Z,97.71
2018-11-14T09:44:25.949Z,98.01
2018-11-14T09:45:25.917Z,97.14
2018-11-14T09:46:25.878Z,97.34
2018-11-14T09:47:25.867Z,96.88
2018-11-14T09:48:25.868Z,97.19
2018-11-14T09:49:25.957Z,96.83
2018-11-14T09:50:25.854Z,96.73
2018-11-14T09:51:25.821Z,96.94
2018-11-14T09:52:25.814Z,96.89
2018-11-14T09:53:25.911Z,96.48
2018-11-14T09:54:25.819Z,95.55
2018-11-14T09:55:25.791Z,94.99
2018-11-14T09:56:25.811Z,94.37
2018-11-14T09:57:25.772Z,95.09
2018-11-14T09:58:25.741Z,94.84
2018-11-14T09:59:25.761Z,94.32
2018-11-14T10:00:25.743Z,94.23
2018-11-14T10:01:25.713Z,94.23
2018-11-14T10:02:25.704Z,94.02
2018-11-14T10:03:25.696Z,93.91
2018-11-14T10:04:25.684Z,93.91
2018-11-14T10:05:25.745Z,93.60
2018-11-14T10:06:25.662Z,93.81
2018-11-14T10:07:25.647Z,93.81
2018-11-14T10:08:25.640Z,94.23
2018-11-14T10:09:25.617Z,94.02
2018-11-14T10:10:25.658Z,93.71
2018-11-14T10:11:25.601Z,94.12
2018-11-14T10:12:25.674Z,93.40
2018-11-14T10:13:25.593Z,93.91
2018-11-14T10:14:25.571Z,93.30
2018-11-14T10:15:25.585Z,93.60
2018-11-14T10:16:25.541Z,93.40
2018-11-14T10:17:25.539Z,94.08
2018-11-14T10:18:25.552Z,93.81
2018-11-14T10:19:25.506Z,93.25
2018-11-14T10:20:25.547Z,92.74
2018-11-14T10:21:25.578Z,92.38
2018-11-14T10:22:25.488Z,91.42
2018-11-14T10:23:25.466Z,90.28
2018-11-14T10:24:25.471Z,90.08
2018-11-14T10:25:25.454Z,89.31
2018-11-14T10:26:25.431Z,89.73
2018-11-14T10:27:25.425Z,89.22
2018-11-14T10:28:25.406Z,88.59
2018-11-14T10:29:25.403Z,89.01
2018-11-14T10:30:25.510Z,88.84
2018-11-14T10:31:25.405Z,89.22
2018-11-14T10:32:25.359Z,90.24
2018-11-14T10:33:25.351Z,90.03
2018-11-14T10:34:25.335Z,89.94
2018-11-14T10:35:25.372Z,89.73
2018-11-14T10:36:25.325Z,89.62
2018-11-14T10:37:25.314Z,89.97
2018-11-14T10:38:25.307Z,89.56
2018-11-14T10:39:25.294Z,89.01
2018-11-14T10:40:25.288Z,88.70
2018-11-14T10:41:25.265Z,88.90
2018-11-14T10:42:25.253Z,88.59
2018-11-14T10:43:25.242Z,87.87
2018-11-14T10:44:25.238Z,88.18
2018-11-14T10:45:25.226Z,87.73
2018-11-14T10:46:25.207Z,88.04
2018-11-14T10:47:25.202Z,87.63
2018-11-14T10:48:25.209Z,88.04
2018-11-14T10:49:25.174Z,88.24
2018-11-14T10:50:25.183Z,87.63
2018-11-14T10:51:25.150Z,88.45
2018-11-14T10:52:25.143Z,88.35
2018-11-14T10:53:25.123Z,88.24
2018-11-14T10:54:25.123Z,88.35
2018-11-14T10:55:25.134Z,88.35
2018-11-14T10:56:25.098Z,88.86
2018-11-14T10:57:25.094Z,88.80
2018-11-14T10:58:25.143Z,88.96
2018-11-14T10:59:25.072Z,88.39
2018-11-14T11:00:25.061Z,88.08
2018-11-14T11:01:25.037Z,88.24
2018-11-14T11:02:25.031Z,87.94
2018-11-14T11:03:25.014Z,87.52
2018-11-14T11:04:24.998Z,86.87
2018-11-14T11:05:25.008Z,85.74
2018-11-14T11:06:24.980Z,86.66
2018-11-14T11:07:24.973Z,86.32
2018-11-14T11:08:25.043Z,85.94
2018-11-14T11:09:24.947Z,86.21
2018-11-14T11:10:24.956Z,87.24
2018-11-14T11:11:24.940Z,85.63
2018-11-14T11:12:24.919Z,86.11
2018-11-14T11:13:24.904Z,85.18
2018-11-14T11:14:24.894Z,85.28
2018-11-14T11:15:24.887Z,85.39
2018-11-14T11:16:24.868Z,83.19
2018-11-14T11:17:24.875Z,84.32
2018-11-14T11:18:24.844Z,83.70
2018-11-14T11:19:24.848Z,83.50
2018-11-14T11:20:24.849Z,83.81
2018-11-14T11:21:24.833Z,85.14
2018-11-14T11:22:24.815Z,84.84
2018-11-14T11:23:24.852Z,84.84
2018-11-14T11:24:24.781Z,85.04
2018-11-14T11:25:24.780Z,83.81
2018-11-14T11:26:24.765Z,83.29
2018-11-14T11:27:24.754Z,82.47
2018-11-14T11:28:24.738Z,84.22
2018-11-14T11:29:24.735Z,84.12
2018-11-14T11:30:24.722Z,84.88
2018-11-14T11:31:24.697Z,85.46
2018-11-14T11:32:24.685Z,85.08
2018-11-14T11:33:24.686Z,85.28
2018-11-14T11:34:24.673Z,84.36
2018-11-14T11:35:24.729Z,85.18
2018-11-14T11:36:24.644Z,84.47
2018-11-14T11:37:24.636Z,84.63
2018-11-14T11:38:24.721Z,85.04
2018-11-14T11:39:24.626Z,85.80
2018-11-14T11:40:24.610Z,86.17
2018-11-14T11:41:24.611Z,86.83
2018-11-14T11:42:24.579Z,86.32
2018-11-14T11:43:24.568Z,86.83
2018-11-14T11:44:24.591Z,86.93
2018-11-14T11:45:24.550Z,85.90
2018-11-14T11:46:24.551Z,86.11
2018-11-14T11:47:24.538Z,86.72
2018-11-14T11:48:24.527Z,86.93
2018-11-14T11:49:24.497Z,86.00
2018-11-14T11:50:24.491Z,86.83
2018-11-14T11:51:24.489Z,86.93
2018-11-14T11:52:24.468Z,86.87
2018-11-14T11:53:24.459Z,87.59
2018-11-14T11:54:24.440Z,86.77
2018-11-14T11:55:24.444Z,87.28
2018-11-14T11:56:24.437Z,87.18
2018-11-14T11:57:24.426Z,86.77
2018-11-14T11:58:24.403Z,87.28
2018-11-14T11:59:24.422Z,87.38
2018-11-14T12:00:24.549Z,86.87
2018-11-14T12:01:24.380Z,86.21
2018-11-14T12:02:24.480Z,85.25
2018-11-14T12:03:24.345Z,82.95
2018-11-14T12:04:24.354Z,83.36
2018-11-14T12:05:24.338Z,83.56
2018-11-14T12:06:24.379Z,83.15
2018-11-14T12:07:24.316Z,82.43
2018-11-14T12:08:24.291Z,82.75
2018-11-14T12:09:24.297Z,81.71
2018-11-14T12:10:24.270Z,80.86
2018-11-14T12:11:24.266Z,80.35
2018-11-14T12:12:24.238Z,80.65
2018-11-14T12:13:24.295Z,80.76
2018-11-14T12:14:24.221Z,80.86
2018-11-14T12:15:24.208Z,81.27
2018-11-14T12:16:24.221Z,81.82
2018-11-14T12:17:24.187Z,81.71
2018-11-14T12:18:24.180Z,82.03
2018-11-14T12:19:24.176Z,82.99
2018-11-14T12:20:24.160Z,83.05
2018-11-14T12:21:24.157Z,83.81
2018-11-14T12:22:24.130Z,83.50
2018-11-14T12:23:24.158Z,84.01
2018-11-14T12:24:24.111Z,84.88
2018-11-14T12:25:24.099Z,84.88
2018-11-14T12:26:24.107Z,85.28
2018-11-14T12:27:24.104Z,85.94
2018-11-14T12:28:24.069Z,85.33
2018-11-14T12:29:24.056Z,85.53
2018-11-14T12:30:24.150Z,85.84
2018-11-14T12:31:24.044Z,85.53
2018-11-14T12:32:24.015Z,85.53
2018-11-14T12:33:24.020Z,85.74
2018-11-14T12:34:24.001Z,85.74
2018-11-14T12:35:24.011Z,85.84
2018-11-14T12:36:24.025Z,86.25
2018-11-14T12:37:23.960Z,87.12
2018-11-14T12:38:23.952Z,86.91
2018-11-14T12:39:23.949Z,87.01
2018-11-14T12:40:23.925Z,87.42
2018-11-14T12:41:23.933Z,87.32
2018-11-14T12:42:23.901Z,87.46
2018-11-14T12:43:23.981Z,87.32
2018-11-14T12:44:23.888Z,87.84
2018-11-14T12:45:23.872Z,87.52
2018-11-14T12:46:23.902Z,88.14
2018-11-14T12:47:23.854Z,88.04
2018-11-14T12:48:23.851Z,87.94
2018-11-14T12:49:23.838Z,88.04
2018-11-14T12:50:23.820Z,87.77
2018-11-14T12:51:23.833Z,87.87
2018-11-14T12:52:23.841Z,87.77
2018-11-14T12:53:23.787Z,88.24
2018-11-14T12:54:23.781Z,88.49
2018-11-14T12:55:23.762Z,88.45
2018-11-14T12:56:23.771Z,89.31
2018-11-14T12:57:23.756Z,88.59
2018-11-14T12:58:23.755Z,89.83
2018-11-14T12:59:23.733Z,89.94
2018-11-14T13:00:23.717Z,89.73
2018-11-14T13:01:23.706Z,89.77
2018-11-14T13:02:23.687Z,90.39
2018-11-14T13:03:23.673Z,90.39
2018-11-14T13:04:23.661Z,90.18
2018-11-14T13:05:23.646Z,90.08
2018-11-14T13:06:23.653Z,90.39
2018-11-14T13:07:23.634Z,90.39
2018-11-14T13:08:23.620Z,90.18
2018-11-14T13:09:23.601Z,90.08
2018-11-14T13:10:23.591Z,90.01
2018-11-14T13:11:23.592Z,90.59
2018-11-14T13:12:23.572Z,89.91
2018-11-14T13:13:23.558Z,90.18
2018-11-14T13:14:23.565Z,90.49
2018-11-14T13:15:23.540Z,90.39
2018-11-14T13:16:23.540Z,90.33
2018-11-14T13:17:23.525Z,90.49
2018-11-14T13:18:23.504Z,88.84
2018-11-14T13:19:23.501Z,88.18
2018-11-14T13:20:23.480Z,87.87
2018-11-14T13:21:23.487Z,88.18
2018-11-14T13:22:23.461Z,87.73
2018-11-14T13:23:23.448Z,87.73
2018-11-14T13:24:23.435Z,87.12
2018-11-14T13:25:23.425Z,87.15
2018-11-14T13:26:23.430Z,87.84
2018-11-14T13:27:23.403Z,87.46
2018-11-14T13:28:23.405Z,88.29
2018-11-14T13:29:23.379Z,88.08
2018-11-14T13:30:23.364Z,88.59
2018-11-14T13:31:23.395Z,88.29
2018-11-14T13:32:23.342Z,88.49
2018-11-14T13:33:23.350Z,88.29
